Main page
METAR-TAF:

METAR-TAF

Airports :

Chennai International Airport

Chennai, India

latitude: 13-00N, longitude: 080-11E, elevation: 10 m

Current weather observation

The report was made 37 minutes ago, at 00:00 UTC
Wind 6 kt from the South/Southwest
Temperature 30°C
Humidity 84%
Pressure 1004 hPa
Visibility: 6000 m
Scattered clouds at a height of 2000 ft

METAR: VOMM 240000Z 21006KT 6000 SCT020 30/27 Q1004 NOSIG

Time: 06:07 (00:37 UTC)

Forecast

The report was made 1 hour and 37 minutes ago, at 23:00 UTC
Forecast valid from 24 at 00 UTC to 25 at 06 UTC
Wind 5 kt from the South
Visibility: 6000 m
Few clouds at a height of 2000 ft
Becoming
from 24 at 05 UTC to 24 at 06 UTC
Wind 2 kt from variable directions
Becoming
from 24 at 09 UTC to 24 at 10 UTC
Wind 10 kt from the East
Becoming
from 24 at 18 UTC to 24 at 19 UTC
Wind 10 kt from the South

TAF: VOMM 232300Z 2400/2506 18005KT 6000 FEW020 BECMG 2405/2406 VRB02KT BECMG 2409/2410 09010KT BECMG 2418/2419 18010KT

Weather observations and forecasts of more than 4000 airports (METAR and TAF reports).

The available stations are represented by yellow and red dots on the map.

Hover mouse over dot to see the name of the station.

Then click to see weather observations and forecasts.

To change the map : click on the green buttons with a black cross to zoom in, on the green button with a dash to zoom out, or on the green arrows for adjacent maps.


METAR-TAF: